createdAt,value
2019-04-03T00:00:04.490Z,4
2019-04-03T00:05:04.509Z,7
2019-04-03T00:10:02.543Z,3
2019-04-03T00:15:03.141Z,5
2019-04-03T00:20:02.612Z,12
2019-04-03T00:25:03.020Z,5
2019-04-03T00:30:02.645Z,5
2019-04-03T00:35:02.978Z,9
2019-04-03T00:40:02.441Z,8
2019-04-03T00:45:02.850Z,5
2019-04-03T00:50:03.479Z,3
2019-04-03T00:55:02.997Z,3
2019-04-03T01:00:02.338Z,5
2019-04-03T01:05:03.014Z,7
2019-04-03T01:10:02.563Z,7
2019-04-03T01:15:02.984Z,4
2019-04-03T01:20:02.354Z,4
2019-04-03T01:25:03.033Z,4
2019-04-03T01:30:02.347Z,7
2019-04-03T01:35:02.712Z,7
2019-04-03T01:40:03.250Z,5
2019-04-03T01:45:02.668Z,5
2019-04-03T01:50:03.077Z,4
2019-04-03T01:55:04.271Z,5
2019-04-03T02:00:02.825Z,4
2019-04-03T02:05:03.183Z,2
2019-04-03T02:10:02.659Z,5
2019-04-03T02:15:03.042Z,3
2019-04-03T02:20:02.420Z,3
2019-04-03T02:25:02.991Z,2
2019-04-03T02:30:02.468Z,5
2019-04-03T02:35:06.992Z,1
2019-04-03T02:40:03.265Z,3
2019-04-03T02:45:02.675Z,2
2019-04-03T02:50:03.068Z,3
2019-04-03T02:55:04.604Z,5
2019-04-03T03:00:02.623Z,2
2019-04-03T03:05:03.325Z,3
2019-04-03T03:10:02.795Z,3
2019-04-03T03:15:03.171Z,7
2019-04-03T03:20:05.492Z,4
2019-04-03T03:25:02.698Z,3
2019-04-03T03:30:27.737Z,1
2019-04-03T03:35:12.415Z,2
2019-04-03T03:40:02.377Z,1
2019-04-03T03:45:02.821Z,1
2019-04-03T03:50:02.815Z,1
2019-04-03T03:55:03.213Z,2
2019-04-03T04:00:02.623Z,2
2019-04-03T04:05:02.957Z,1
2019-04-03T04:10:02.479Z,1
2019-04-03T04:15:03.126Z,2
2019-04-03T04:20:05.095Z,0
2019-04-03T04:25:03.100Z,0
2019-04-03T04:30:03.334Z,2
2019-04-03T04:35:02.668Z,0
2019-04-03T04:40:03.347Z,1
2019-04-03T04:45:02.825Z,0
2019-04-03T04:50:03.190Z,1
2019-04-03T04:55:02.873Z,0
2019-04-03T05:00:03.354Z,2
2019-04-03T05:05:02.957Z,0
2019-04-03T05:10:02.367Z,0
2019-04-03T05:15:02.192Z,0
2019-04-03T05:20:02.638Z,0
2019-04-03T05:25:02.987Z,0
2019-04-03T05:30:05.219Z,0
2019-04-03T05:35:03.087Z,0
2019-04-03T05:40:02.577Z,0
2019-04-03T05:45:04.548Z,0
2019-04-03T05:50:03.495Z,0
2019-04-03T05:55:02.881Z,0
2019-04-03T06:00:06.253Z,0
2019-04-03T06:05:06.278Z,1
2019-04-03T06:10:02.817Z,0
2019-04-03T06:15:03.225Z,0
2019-04-03T06:20:02.634Z,0
2019-04-03T06:25:03.387Z,0
2019-04-03T06:30:02.952Z,0
2019-04-03T06:35:03.355Z,0
2019-04-03T06:40:03.841Z,0
2019-04-03T06:45:03.316Z,0
2019-04-03T06:50:02.735Z,0
2019-04-03T06:55:04.000Z,0
2019-04-03T07:00:02.489Z,2
2019-04-03T07:05:03.022Z,4
2019-04-03T07:10:04.237Z,2
2019-04-03T07:15:03.116Z,0
2019-04-03T07:20:12.643Z,0
2019-04-03T07:25:03.559Z,0
2019-04-03T07:30:03.592Z,3
2019-04-03T07:35:06.329Z,2
2019-04-03T07:40:02.759Z,2
2019-04-03T07:45:03.059Z,1
2019-04-03T07:50:02.539Z,0
2019-04-03T07:55:03.272Z,0
2019-04-03T08:00:06.163Z,0
2019-04-03T08:05:02.544Z,0
2019-04-03T08:10:03.345Z,0
2019-04-03T08:15:02.731Z,0
2019-04-03T08:20:03.176Z,0
2019-04-03T08:25:02.501Z,1
2019-04-03T08:30:02.931Z,0
2019-04-03T08:35:04.514Z,0
2019-04-03T08:40:03.036Z,0
2019-04-03T08:45:05.754Z,1
2019-04-03T08:50:07.261Z,2
2019-04-03T08:55:02.978Z,0
2019-04-03T09:00:02.306Z,0
2019-04-03T09:05:02.730Z,1
2019-04-03T09:10:03.264Z,0
2019-04-03T09:15:02.696Z,0
2019-04-03T09:20:03.141Z,0
2019-04-03T09:25:02.455Z,0
2019-04-03T09:30:02.945Z,1
2019-04-03T09:35:03.343Z,0
2019-04-03T09:40:02.889Z,2
2019-04-03T09:45:03.231Z,0
2019-04-03T09:50:02.633Z,2
2019-04-03T09:55:03.063Z,1
2019-04-03T10:00:02.493Z,1
2019-04-03T10:05:03.160Z,0
2019-04-03T10:10:02.782Z,1
2019-04-03T10:15:03.206Z,0
2019-04-03T10:20:06.774Z,0
2019-04-03T10:25:05.462Z,0
2019-04-03T10:30:02.986Z,0
2019-04-03T10:35:02.459Z,2
2019-04-03T10:40:07.043Z,1
2019-04-03T10:45:02.367Z,0
2019-04-03T10:50:04.862Z,2
2019-04-03T10:55:02.716Z,2
2019-04-03T11:00:03.232Z,0
2019-04-03T11:05:02.944Z,0
2019-04-03T11:10:03.143Z,3
2019-04-03T11:15:02.828Z,1
2019-04-03T11:20:03.241Z,2
2019-04-03T11:25:03.018Z,0
2019-04-03T11:30:02.420Z,0
2019-04-03T11:35:02.867Z,2
2019-04-03T11:40:04.870Z,0
2019-04-03T11:45:04.781Z,2
2019-04-03T11:50:02.440Z,2
2019-04-03T11:55:02.843Z,0
2019-04-03T12:00:03.255Z,0
2019-04-03T12:05:02.627Z,0
2019-04-03T12:10:04.221Z,1
2019-04-03T12:15:02.671Z,2
2019-04-03T12:20:03.191Z,0
2019-04-03T12:25:02.804Z,0
2019-04-03T12:30:03.194Z,1
2019-04-03T12:35:02.641Z,0
2019-04-03T12:40:03.053Z,1
2019-04-03T12:45:02.465Z,0
2019-04-03T12:50:03.064Z,2
2019-04-03T12:55:02.470Z,2
2019-04-03T13:00:02.909Z,0
2019-04-03T13:05:05.641Z,1
2019-04-03T13:10:04.647Z,0
2019-04-03T13:15:05.180Z,0
2019-04-03T13:20:05.099Z,0
2019-04-03T13:25:03.253Z,3
2019-04-03T13:30:02.699Z,2
2019-04-03T13:35:04.878Z,2
2019-04-03T13:40:05.661Z,1
2019-04-03T13:45:02.952Z,0
2019-04-03T13:50:03.578Z,0
2019-04-03T13:55:03.300Z,1
2019-04-03T14:00:16.313Z,0
2019-04-03T14:05:02.945Z,0
2019-04-03T14:10:02.426Z,2
2019-04-03T14:15:04.354Z,0
2019-04-03T14:20:02.938Z,0
2019-04-03T14:25:02.452Z,0
2019-04-03T14:30:03.024Z,0
2019-04-03T14:35:10.987Z,1
2019-04-03T14:40:03.359Z,1
2019-04-03T14:45:02.439Z,1
2019-04-03T14:50:05.064Z,0
2019-04-03T14:55:16.422Z,2
2019-04-03T15:00:16.144Z,1
2019-04-03T15:05:02.656Z,0
2019-04-03T15:10:03.168Z,0
2019-04-03T15:15:02.608Z,2
2019-04-03T15:20:03.027Z,1
2019-04-03T15:25:03.043Z,0
2019-04-03T15:30:02.744Z,0
2019-04-03T15:35:03.173Z,0
2019-04-03T15:40:02.612Z,2
2019-04-03T15:45:03.210Z,0
2019-04-03T15:50:03.183Z,2
2019-04-03T15:55:04.077Z,1
2019-04-03T16:00:03.629Z,0
2019-04-03T16:05:03.081Z,0
2019-04-03T16:10:02.761Z,0
2019-04-03T16:15:03.175Z,0
2019-04-03T16:20:03.032Z,0
2019-04-03T16:25:02.513Z,0
2019-04-03T16:30:02.945Z,0
2019-04-03T16:35:03.658Z,0
2019-04-03T16:40:05.017Z,0
2019-04-03T16:45:04.756Z,0
2019-04-03T16:50:02.363Z,0
2019-04-03T16:55:03.236Z,0
2019-04-03T17:00:02.653Z,0
2019-04-03T17:05:03.080Z,0
2019-04-03T17:10:02.502Z,0
2019-04-03T17:15:02.044Z,0
2019-04-03T17:20:02.461Z,0
2019-04-03T17:25:02.799Z,0
2019-04-03T17:30:03.173Z,0
2019-04-03T17:35:02.837Z,0
2019-04-03T17:40:04.073Z,0
2019-04-03T17:45:03.344Z,0
2019-04-03T17:50:02.779Z,0
2019-04-03T17:55:03.210Z,0
2019-04-03T18:00:02.616Z,0
2019-04-03T18:05:02.985Z,0
2019-04-03T18:10:02.486Z,0
2019-04-03T18:15:02.939Z,0
2019-04-03T18:20:03.385Z,0
2019-04-03T18:25:02.787Z,0
2019-04-03T18:30:03.135Z,0
2019-04-03T18:35:02.582Z,0
2019-04-03T18:40:03.103Z,0
2019-04-03T18:45:02.557Z,0
2019-04-03T18:50:03.548Z,0
2019-04-03T18:55:03.201Z,0
2019-04-03T19:00:02.523Z,0
2019-04-03T19:05:02.853Z,0
2019-04-03T19:10:07.346Z,0
2019-04-03T19:15:03.465Z,0
2019-04-03T19:20:10.159Z,0
2019-04-03T19:25:03.303Z,0
2019-04-03T19:30:02.725Z,0
2019-04-03T19:35:03.088Z,0
2019-04-03T19:40:02.476Z,0
2019-04-03T19:45:02.059Z,0
2019-04-03T19:50:02.566Z,0
2019-04-03T19:55:03.005Z,0
2019-04-03T20:00:03.063Z,0
2019-04-03T20:05:03.155Z,0
2019-04-03T20:10:03.297Z,0
2019-04-03T20:15:03.131Z,0
2019-04-03T20:20:02.566Z,0
2019-04-03T20:25:02.982Z,0
2019-04-03T20:30:02.412Z,0
2019-04-03T20:35:02.754Z,0
2019-04-03T20:40:03.195Z,0
2019-04-03T20:45:02.597Z,0
2019-04-03T20:50:02.963Z,0
2019-04-03T20:55:03.407Z,0
2019-04-03T21:00:03.478Z,0
2019-04-03T21:05:03.064Z,0
2019-04-03T21:10:02.479Z,0
2019-04-03T21:15:08.755Z,6
2019-04-03T21:20:02.541Z,3
2019-04-03T21:25:04.999Z,2
2019-04-03T21:30:02.707Z,0
2019-04-03T21:35:04.123Z,0
2019-04-03T21:40:04.855Z,0
2019-04-03T21:45:04.951Z,0
2019-04-03T21:50:03.757Z,0
2019-04-03T21:55:04.699Z,0
2019-04-03T22:00:02.407Z,0
2019-04-03T22:05:02.771Z,1
2019-04-03T22:10:03.187Z,3
2019-04-03T22:15:02.655Z,3
2019-04-03T22:20:02.199Z,2
2019-04-03T22:25:02.573Z,2
2019-04-03T22:30:02.913Z,1
2019-04-03T22:35:03.380Z,0
2019-04-03T22:40:02.861Z,0
2019-04-03T22:45:03.236Z,0
2019-04-03T22:50:04.929Z,0
2019-04-03T22:55:02.877Z,0
2019-04-03T23:00:03.203Z,0
2019-04-03T23:05:02.419Z,0
2019-04-03T23:10:02.865Z,0
2019-04-03T23:15:03.193Z,2
2019-04-03T23:20:02.623Z,0
2019-04-03T23:25:02.973Z,0
2019-04-03T23:30:03.311Z,0
2019-04-03T23:35:02.850Z,0
2019-04-03T23:40:03.278Z,0
2019-04-03T23:45:02.685Z,0
2019-04-03T23:50:03.007Z,0
2019-04-03T23:55:04.420Z,0
